createdAt,value
2023-03-04T00:00:24.759Z,98573.25
2023-03-04T00:03:13.797Z,98581.35
2023-03-04T00:05:40.960Z,98576.92
2023-03-04T00:08:07.972Z,98573.52
2023-03-04T00:10:34.853Z,98569.23
2023-03-04T00:13:01.847Z,98569.95
2023-03-04T00:15:28.777Z,98567.00
2023-03-04T00:17:55.927Z,98571.00
2023-03-04T00:20:22.880Z,98566.66
2023-03-04T00:22:49.829Z,98569.50
2023-03-04T00:25:16.882Z,98572.13
2023-03-04T00:27:43.936Z,98570.83
2023-03-04T00:30:10.953Z,98564.79
2023-03-04T00:32:37.858Z,98566.77
2023-03-04T00:35:05.766Z,98563.36
2023-03-04T00:37:32.587Z,98563.03
2023-03-04T00:39:59.359Z,98561.79
2023-03-04T00:42:26.208Z,98557.11
2023-03-04T00:44:53.188Z,98554.46
2023-03-04T00:47:19.980Z,98552.08
2023-03-04T00:49:46.778Z,98549.54
2023-03-04T00:52:13.645Z,98550.27
2023-03-04T00:54:40.508Z,98552.60
2023-03-04T00:57:07.298Z,98548.73
2023-03-04T00:59:34.062Z,98546.98
2023-03-04T01:02:01.293Z,98538.50
2023-03-04T01:04:30.239Z,98535.99
2023-03-04T01:06:57.109Z,98545.55
2023-03-04T01:09:24.024Z,98546.33
2023-03-04T01:11:50.866Z,98543.86
2023-03-04T01:14:17.803Z,98537.58
2023-03-04T01:16:44.622Z,98533.34
2023-03-04T01:19:11.565Z,98527.77
2023-03-04T01:21:38.340Z,98521.97
2023-03-04T01:24:05.336Z,98522.23
2023-03-04T01:26:32.102Z,98524.66
2023-03-04T01:28:58.932Z,98520.92
2023-03-04T01:31:25.819Z,98520.08
2023-03-04T01:33:52.730Z,98519.55
2023-03-04T01:36:19.621Z,98516.10
2023-03-04T01:38:46.499Z,98512.30
2023-03-04T01:41:13.893Z,98510.95
2023-03-04T01:43:40.887Z,98501.48
2023-03-04T01:46:09.841Z,98502.02
2023-03-04T01:48:37.777Z,98501.04
2023-03-04T01:51:06.041Z,98505.39
2023-03-04T01:53:33.313Z,98506.45
2023-03-04T01:56:02.039Z,98507.55
2023-03-04T01:58:30.325Z,98505.21
2023-03-04T02:00:57.652Z,98511.66
2023-03-04T02:03:25.246Z,98509.34
2023-03-04T02:05:53.437Z,98504.21
2023-03-04T02:08:21.706Z,98501.16
2023-03-04T02:10:48.858Z,98501.71
2023-03-04T02:13:16.735Z,98499.04
2023-03-04T02:15:44.964Z,98494.61
2023-03-04T02:18:15.040Z,98491.76
2023-03-04T02:20:43.213Z,98489.05
2023-03-04T02:23:10.264Z,98491.70
2023-03-04T02:25:47.245Z,98493.77
2023-03-04T02:28:14.811Z,98491.95
2023-03-04T02:30:42.890Z,98486.58
2023-03-04T02:33:14.139Z,98484.10
2023-03-04T02:35:41.447Z,98479.42
2023-03-04T02:38:09.779Z,98477.82
2023-03-04T02:40:38.568Z,98474.34
2023-03-04T02:43:06.133Z,98474.85
2023-03-04T02:45:44.033Z,98474.35
2023-03-04T02:48:12.541Z,98470.05
2023-03-04T02:50:45.003Z,98468.98
2023-03-04T02:53:12.156Z,98467.72
2023-03-04T02:55:39.207Z,98467.31
2023-03-04T02:58:06.882Z,98469.02
2023-03-04T03:00:34.951Z,98464.67
2023-03-04T03:03:02.280Z,98465.30
2023-03-04T03:05:30.797Z,98465.59
2023-03-04T03:07:57.954Z,98463.29
2023-03-04T03:10:25.682Z,98458.36
2023-03-04T03:12:53.083Z,98455.77
2023-03-04T03:15:20.321Z,98452.69
2023-03-04T03:17:47.291Z,98445.95
2023-03-04T03:20:15.271Z,98445.78
2023-03-04T03:22:42.725Z,98441.83
2023-03-04T03:25:11.006Z,98441.02
2023-03-04T03:27:37.961Z,98446.55
2023-03-04T03:30:06.240Z,98445.19
2023-03-04T03:32:35.991Z,98445.52
2023-03-04T03:35:03.615Z,98441.08
2023-03-04T03:37:30.674Z,98438.67
2023-03-04T03:39:57.723Z,98441.26
2023-03-04T03:42:24.703Z,98440.21
2023-03-04T03:44:51.728Z,98440.69
2023-03-04T03:47:18.776Z,98439.96
2023-03-04T03:49:45.832Z,98440.98
2023-03-04T03:52:13.569Z,98435.31
2023-03-04T03:54:40.449Z,98440.68
2023-03-04T03:57:07.500Z,98437.21
2023-03-04T03:59:34.555Z,98433.71
2023-03-04T04:02:01.694Z,98433.03
2023-03-04T04:04:28.866Z,98427.52
2023-03-04T04:06:56.023Z,98426.68
2023-03-04T04:09:22.870Z,98424.56
2023-03-04T04:11:49.921Z,98425.04
2023-03-04T04:14:16.983Z,98425.65
2023-03-04T04:16:43.983Z,98425.23
2023-03-04T04:19:20.400Z,98426.16
2023-03-04T04:21:47.966Z,98423.27
2023-03-04T04:24:15.117Z,98426.30
2023-03-04T04:26:42.578Z,98425.66
2023-03-04T04:29:09.531Z,98419.49
2023-03-04T04:31:36.581Z,98421.47
2023-03-04T04:34:03.401Z,98423.59
2023-03-04T04:36:30.477Z,98422.62
2023-03-04T04:38:57.556Z,98415.22
2023-03-04T04:41:26.635Z,98411.98
2023-03-04T04:43:53.890Z,98415.27
2023-03-04T04:46:21.025Z,98413.95
2023-03-04T04:48:48.068Z,98414.67
2023-03-04T04:51:15.149Z,98413.01
2023-03-04T04:53:42.503Z,98414.77
2023-03-04T04:56:28.289Z,98412.39
2023-03-04T04:59:00.059Z,98412.61
2023-03-04T05:01:27.251Z,98407.83
2023-03-04T05:03:54.975Z,98409.80
2023-03-04T05:06:23.257Z,98410.05
2023-03-04T05:08:50.631Z,98408.55
2023-03-04T05:11:19.019Z,98412.40
2023-03-04T05:13:46.875Z,98416.84
2023-03-04T05:16:14.614Z,98415.50
2023-03-04T05:18:41.592Z,98417.13
2023-03-04T05:21:08.750Z,98412.38
2023-03-04T05:23:36.935Z,98411.40
2023-03-04T05:26:05.107Z,98417.16
2023-03-04T05:28:32.476Z,98418.16
2023-03-04T05:30:59.677Z,98412.06
2023-03-04T05:33:26.984Z,98419.55
2023-03-04T05:35:54.683Z,98422.95
2023-03-04T05:38:22.323Z,98423.05
2023-03-04T05:40:49.479Z,98423.97
2023-03-04T05:43:16.937Z,98424.77
2023-03-04T05:45:43.890Z,98425.73
2023-03-04T05:48:11.041Z,98427.89
2023-03-04T05:50:38.002Z,98429.19
2023-03-04T05:53:05.152Z,98425.27
2023-03-04T05:55:32.202Z,98430.00
2023-03-04T05:57:59.108Z,98431.47
2023-03-04T06:00:26.409Z,98433.98
2023-03-04T06:02:53.713Z,98438.35
2023-03-04T06:05:20.821Z,98441.38
2023-03-04T06:07:47.881Z,98444.20
2023-03-04T06:10:16.261Z,98444.78
2023-03-04T06:12:43.517Z,98448.31
2023-03-04T06:15:11.087Z,98450.59
2023-03-04T06:17:39.498Z,98448.60
2023-03-04T06:20:09.292Z,98447.70
2023-03-04T06:22:36.135Z,98445.41
2023-03-04T06:25:03.693Z,98444.25
2023-03-04T06:27:30.542Z,98447.59
2023-03-04T06:29:57.388Z,98444.00
2023-03-04T06:32:24.623Z,98442.48
2023-03-04T06:34:51.593Z,98443.69
2023-03-04T06:37:18.855Z,98440.55
2023-03-04T06:39:45.833Z,98446.59
2023-03-04T06:42:13.141Z,98445.09
2023-03-04T06:44:40.424Z,98448.50
2023-03-04T06:47:07.882Z,98447.45
2023-03-04T06:49:34.835Z,98450.92
2023-03-04T06:52:01.990Z,98450.58
2023-03-04T06:54:29.146Z,98447.46
2023-03-04T06:56:56.403Z,98448.11
2023-03-04T06:59:23.351Z,98450.09
2023-03-04T07:01:50.406Z,98449.30
2023-03-04T07:04:17.406Z,98451.65
2023-03-04T07:06:44.409Z,98448.33
2023-03-04T07:09:11.318Z,98452.20
2023-03-04T07:11:38.207Z,98446.89
2023-03-04T07:14:05.161Z,98447.20
2023-03-04T07:16:32.406Z,98448.41
2023-03-04T07:18:59.475Z,98443.66
2023-03-04T07:21:26.939Z,98442.44
2023-03-04T07:23:53.791Z,98446.74
2023-03-04T07:26:20.665Z,98442.08
2023-03-04T07:28:47.781Z,98440.05
2023-03-04T07:31:27.862Z,98436.39
2023-03-04T07:34:05.757Z,98436.37
2023-03-04T07:36:34.013Z,98429.23
2023-03-04T07:39:00.880Z,98432.44
2023-03-04T07:41:29.449Z,98424.35
2023-03-04T07:43:57.327Z,98426.97
2023-03-04T07:46:24.692Z,98423.64
2023-03-04T07:48:51.743Z,98418.19
2023-03-04T07:51:19.604Z,98419.13
2023-03-04T07:53:47.683Z,98420.16
2023-03-04T07:56:16.682Z,98422.08
2023-03-04T07:58:43.632Z,98422.92
2023-03-04T08:01:10.680Z,98425.61
2023-03-04T08:03:37.711Z,98418.59
2023-03-04T08:06:05.734Z,98416.48
2023-03-04T08:08:32.559Z,98415.17
2023-03-04T08:10:59.715Z,98409.88
2023-03-04T08:13:26.872Z,98407.66
2023-03-04T08:15:55.198Z,98402.40
2023-03-04T08:18:22.304Z,98400.99
2023-03-04T08:20:49.356Z,98397.50
2023-03-04T08:23:16.408Z,98397.52
2023-03-04T08:25:43.566Z,98396.39
2023-03-04T08:28:12.564Z,98396.34
2023-03-04T08:30:40.131Z,98395.34
2023-03-04T08:33:07.492Z,98393.09
2023-03-04T08:35:37.041Z,98392.23
2023-03-04T08:38:04.154Z,98394.75
2023-03-04T08:40:31.207Z,98389.84
2023-03-04T08:42:58.254Z,98383.63
2023-03-04T08:45:25.409Z,98381.80
2023-03-04T08:47:52.464Z,98380.71
2023-03-04T08:50:21.968Z,98370.77
2023-03-04T08:52:49.238Z,98368.90
2023-03-04T08:55:16.488Z,98368.51
2023-03-04T08:57:43.542Z,98368.24
2023-03-04T09:00:11.620Z,98366.52
2023-03-04T09:02:38.467Z,98365.73
2023-03-04T09:05:06.029Z,98363.73
2023-03-04T09:07:32.979Z,98362.34
2023-03-04T09:09:59.928Z,98358.02
2023-03-04T09:12:27.103Z,98358.05
2023-03-04T09:15:09.766Z,98357.35
2023-03-04T09:17:38.186Z,98354.75
2023-03-04T09:20:07.742Z,98352.44
2023-03-04T09:22:34.647Z,98348.98
2023-03-04T09:25:01.695Z,98344.48
2023-03-04T09:27:28.545Z,98345.27
2023-03-04T09:29:55.393Z,98344.73
2023-03-04T09:32:22.355Z,98335.38
2023-03-04T09:34:49.291Z,98335.47
2023-03-04T09:37:16.243Z,98329.30
2023-03-04T09:39:43.091Z,98326.55
2023-03-04T09:42:15.057Z,98327.02
2023-03-04T09:44:42.927Z,98324.20
2023-03-04T09:47:17.450Z,98318.25
2023-03-04T09:49:45.769Z,98310.93
2023-03-04T09:52:15.658Z,98308.39
2023-03-04T09:54:51.908Z,98309.98
2023-03-04T09:57:44.044Z,98303.98
2023-03-04T10:00:21.944Z,98305.34
2023-03-04T10:03:01.065Z,98300.36
2023-03-04T10:05:28.628Z,98299.14
2023-03-04T10:07:57.932Z,98296.88
2023-03-04T10:10:27.049Z,98297.26
2023-03-04T10:12:55.823Z,98291.67
2023-03-04T10:15:27.277Z,98296.58
2023-03-04T10:17:59.547Z,98294.38
2023-03-04T10:20:46.657Z,98286.92
2023-03-04T10:23:19.256Z,98277.04
2023-03-04T10:25:46.499Z,98279.05
2023-03-04T10:28:17.741Z,98272.14
2023-03-04T10:30:47.452Z,98268.76
2023-03-04T10:33:16.759Z,98263.35
2023-03-04T10:35:45.908Z,98256.48
2023-03-04T10:38:13.221Z,98250.50
2023-03-04T10:40:40.778Z,98246.02
2023-03-04T10:43:21.127Z,98243.27
2023-03-04T10:45:48.722Z,98235.29
2023-03-04T10:48:20.864Z,98232.02
2023-03-04T10:50:47.922Z,98227.84
2023-03-04T10:53:35.146Z,98222.96
2023-03-04T10:56:02.792Z,98216.30
2023-03-04T10:58:29.640Z,98210.59
2023-03-04T11:01:16.078Z,98204.67
2023-03-04T11:03:46.931Z,98202.08
2023-03-04T11:06:19.040Z,98199.10
2023-03-04T11:08:53.358Z,98194.48
2023-03-04T11:11:23.069Z,98191.50
2023-03-04T11:13:52.385Z,98189.61
2023-03-04T11:16:25.226Z,98186.58
2023-03-04T11:18:53.451Z,98181.23
2023-03-04T11:21:24.817Z,98179.79
2023-03-04T11:24:27.499Z,98176.56
2023-03-04T11:26:59.316Z,98169.88
2023-03-04T11:29:32.302Z,98167.34
2023-03-04T11:32:10.639Z,98165.52
2023-03-04T11:34:40.633Z,98156.83
2023-03-04T11:37:26.624Z,98157.00
2023-03-04T11:39:58.697Z,98156.77
2023-03-04T11:42:29.242Z,98149.49
2023-03-04T11:44:56.292Z,98146.42
2023-03-04T11:47:33.481Z,98142.44
2023-03-04T11:50:10.257Z,98135.32
2023-03-04T11:53:04.124Z,98133.06
2023-03-04T11:55:36.496Z,98132.59
2023-03-04T11:58:22.378Z,98126.13
2023-03-04T12:00:58.439Z,98125.11
2023-03-04T12:03:31.244Z,98119.71
2023-03-04T12:06:01.341Z,98118.79
2023-03-04T12:08:38.088Z,98112.55
2023-03-04T12:11:08.034Z,98102.57
2023-03-04T12:13:41.137Z,98102.36
2023-03-04T12:16:08.408Z,98097.44
2023-03-04T12:18:50.580Z,98093.20
2023-03-04T12:21:42.024Z,98095.61
2023-03-04T12:24:21.352Z,98089.95
2023-03-04T12:26:48.285Z,98086.83
2023-03-04T12:29:20.544Z,98082.64
2023-03-04T12:31:53.532Z,98076.64
2023-03-04T12:34:23.610Z,98071.95
2023-03-04T12:37:07.385Z,98065.80
2023-03-04T12:39:47.333Z,98064.05
2023-03-04T12:42:23.394Z,98062.55
2023-03-04T12:45:02.932Z,98061.22
2023-03-04T12:47:35.916Z,98056.85
2023-03-04T12:50:16.991Z,98053.21
2023-03-04T12:53:01.665Z,98044.84
2023-03-04T12:55:39.243Z,98045.15
2023-03-04T12:58:11.919Z,98038.14
2023-03-04T13:00:57.825Z,98033.42
2023-03-04T13:03:43.529Z,98029.06
2023-03-04T13:06:31.202Z,98021.72
2023-03-04T13:09:24.462Z,98020.42
2023-03-04T13:11:53.654Z,98021.77
2023-03-04T13:14:20.481Z,98013.59
2023-03-04T13:16:48.994Z,98005.63
2023-03-04T13:19:34.624Z,98004.17
2023-03-04T13:22:01.924Z,98001.48
2023-03-04T13:24:46.067Z,97994.16
2023-03-04T13:27:31.747Z,97985.53
2023-03-04T13:29:58.702Z,97986.95
2023-03-04T13:32:36.770Z,97983.06
2023-03-04T13:35:23.824Z,97981.17
2023-03-04T13:37:57.632Z,97978.05
2023-03-04T13:40:32.618Z,97975.02
2023-03-04T13:43:24.165Z,97967.30
2023-03-04T13:45:51.112Z,97955.98
2023-03-04T13:48:32.826Z,97952.75
2023-03-04T13:50:59.876Z,97952.30
2023-03-04T13:53:30.108Z,97943.10
2023-03-04T13:56:12.681Z,97931.97
2023-03-04T13:58:41.065Z,97930.03
2023-03-04T14:01:21.706Z,97923.89
2023-03-04T14:03:48.684Z,97921.70
2023-03-04T14:06:18.096Z,97916.95
2023-03-04T14:08:46.601Z,97913.83
2023-03-04T14:11:33.919Z,97915.98
2023-03-04T14:14:04.317Z,97914.40
2023-03-04T14:16:34.267Z,97911.00
2023-03-04T14:19:03.630Z,97908.39
2023-03-04T14:21:30.973Z,97904.77
2023-03-04T14:24:08.527Z,97900.36
2023-03-04T14:26:35.448Z,97899.77
2023-03-04T14:29:03.523Z,97896.40
2023-03-04T14:31:33.863Z,97887.67
2023-03-04T14:34:04.179Z,97887.13
2023-03-04T14:36:33.315Z,97886.80
2023-03-04T14:39:02.248Z,97887.05
2023-03-04T14:41:37.449Z,97881.98
2023-03-04T14:44:05.289Z,97881.90
2023-03-04T14:46:36.663Z,97878.61
2023-03-04T14:49:04.166Z,97883.16
2023-03-04T14:51:51.866Z,97877.76
2023-03-04T14:54:39.025Z,97876.94
2023-03-04T14:57:21.002Z,97880.73
2023-03-04T14:59:48.366Z,97873.52
2023-03-04T15:02:18.282Z,97870.45
2023-03-04T15:04:46.709Z,97870.22
2023-03-04T15:07:19.547Z,97865.89
2023-03-04T15:09:51.035Z,97869.33
2023-03-04T15:12:24.592Z,97867.15
2023-03-04T15:14:53.743Z,97869.45
2023-03-04T15:17:23.299Z,97864.65
2023-03-04T15:20:05.680Z,97863.41
2023-03-04T15:22:33.210Z,97860.31
2023-03-04T15:25:00.379Z,97863.05
2023-03-04T15:27:28.573Z,97862.55
2023-03-04T15:29:58.662Z,97863.09
2023-03-04T15:32:26.642Z,97868.92
2023-03-04T15:34:53.568Z,97861.71
2023-03-04T15:37:22.732Z,97863.20
2023-03-04T15:39:50.358Z,97866.90
2023-03-04T15:42:17.984Z,97867.60
2023-03-04T15:44:44.973Z,97869.60
2023-03-04T15:47:15.233Z,97874.32
2023-03-04T15:49:43.234Z,97874.52
2023-03-04T15:52:14.961Z,97875.38
2023-03-04T15:54:42.906Z,97877.29
2023-03-04T15:57:18.200Z,97877.97
2023-03-04T15:59:45.165Z,97875.95
2023-03-04T16:02:18.492Z,97877.17
2023-03-04T16:04:45.432Z,97875.89
2023-03-04T16:07:17.582Z,97874.28
2023-03-04T16:09:45.015Z,97873.99
2023-03-04T16:12:11.933Z,97874.42
2023-03-04T16:14:39.212Z,97872.80
2023-03-04T16:17:07.706Z,97875.41
2023-03-04T16:19:34.522Z,97876.37
2023-03-04T16:22:01.535Z,97881.92
2023-03-04T16:24:32.468Z,97881.91
2023-03-04T16:26:59.420Z,97886.20
2023-03-04T16:29:26.310Z,97888.92
2023-03-04T16:31:53.671Z,97889.33
2023-03-04T16:34:20.521Z,97895.27
2023-03-04T16:36:47.493Z,97897.30
2023-03-04T16:39:20.465Z,97897.08
2023-03-04T16:41:47.469Z,97899.84
2023-03-04T16:44:14.734Z,97906.16
2023-03-04T16:46:41.579Z,97904.79
2023-03-04T16:49:08.486Z,97905.48
2023-03-04T16:51:39.330Z,97908.05
2023-03-04T16:54:07.599Z,97908.73
2023-03-04T16:56:34.408Z,97910.02
2023-03-04T16:59:01.247Z,97912.16
2023-03-04T17:01:28.810Z,97909.23
2023-03-04T17:03:55.860Z,97909.95
2023-03-04T17:06:23.345Z,97911.91
2023-03-04T17:08:50.469Z,97914.05
2023-03-04T17:11:18.615Z,97913.81
2023-03-04T17:13:45.484Z,97909.89
2023-03-04T17:16:12.770Z,97912.33
2023-03-04T17:18:40.712Z,97915.31
2023-03-04T17:21:10.412Z,97913.34
2023-03-04T17:23:37.514Z,97914.30
2023-03-04T17:26:04.966Z,97914.48
2023-03-04T17:28:32.379Z,97911.34
2023-03-04T17:30:59.490Z,97910.95
2023-03-04T17:33:26.553Z,97914.42
2023-03-04T17:35:53.434Z,97908.98
2023-03-04T17:38:20.314Z,97909.60
2023-03-04T17:40:47.112Z,97908.95
2023-03-04T17:43:13.972Z,97905.62
2023-03-04T17:45:41.910Z,97903.35
2023-03-04T17:48:14.760Z,97903.99
2023-03-04T17:50:49.332Z,97902.25
2023-03-04T17:53:16.351Z,97901.38
2023-03-04T17:55:59.805Z,97899.81
2023-03-04T17:58:27.556Z,97901.19
2023-03-04T18:00:59.987Z,97897.54
2023-03-04T18:03:26.959Z,97896.84
2023-03-04T18:05:53.722Z,97896.84
2023-03-04T18:08:23.506Z,97894.15
2023-03-04T18:10:50.930Z,97895.30
2023-03-04T18:13:17.817Z,97896.30
2023-03-04T18:15:44.612Z,97895.45
2023-03-04T18:18:11.820Z,97896.75
2023-03-04T18:20:38.793Z,97896.48
2023-03-04T18:23:05.975Z,97894.59
2023-03-04T18:25:33.265Z,97899.04
2023-03-04T18:28:00.122Z,97896.48
2023-03-04T18:30:27.321Z,97896.48
2023-03-04T18:32:55.379Z,97894.49
2023-03-04T18:35:22.308Z,97897.66
2023-03-04T18:37:49.070Z,97895.37
2023-03-04T18:40:15.930Z,97892.33
2023-03-04T18:42:46.007Z,97891.38
2023-03-04T18:45:13.501Z,97887.73
2023-03-04T18:47:41.423Z,97890.71
2023-03-04T18:50:11.349Z,97888.83
2023-03-04T18:52:38.868Z,97889.48
2023-03-04T18:55:05.940Z,97885.63
2023-03-04T18:57:33.005Z,97882.15
2023-03-04T19:00:01.876Z,97883.14
2023-03-04T19:02:33.508Z,97883.09
2023-03-04T19:05:03.193Z,97883.67
2023-03-04T19:07:30.006Z,97882.16
2023-03-04T19:09:56.897Z,97878.62
2023-03-04T19:12:23.805Z,97883.02
2023-03-04T19:14:50.639Z,97882.83
2023-03-04T19:17:17.473Z,97882.70
2023-03-04T19:19:44.322Z,97883.16
2023-03-04T19:22:12.203Z,97883.02
2023-03-04T19:24:38.981Z,97883.77
2023-03-04T19:27:05.800Z,97882.41
2023-03-04T19:29:32.630Z,97883.24
2023-03-04T19:31:59.535Z,97886.94
2023-03-04T19:34:26.269Z,97883.63
2023-03-04T19:36:53.123Z,97888.30
2023-03-04T19:39:20.021Z,97887.20
2023-03-04T19:41:46.842Z,97886.39
2023-03-04T19:44:13.783Z,97888.71
2023-03-04T19:46:40.699Z,97893.20
2023-03-04T19:49:09.453Z,97889.95
2023-03-04T19:51:36.271Z,97893.14
2023-03-04T19:54:03.317Z,97897.63
2023-03-04T19:56:30.199Z,97893.15
2023-03-04T19:58:57.143Z,97892.07
2023-03-04T20:01:27.424Z,97894.61
2023-03-04T20:03:55.148Z,97892.47
2023-03-04T20:06:23.447Z,97891.88
2023-03-04T20:08:50.749Z,97895.27
2023-03-04T20:11:18.416Z,97891.81
2023-03-04T20:13:45.261Z,97888.80
2023-03-04T20:16:12.985Z,97886.41
2023-03-04T20:18:40.240Z,97883.66
2023-03-04T20:21:07.505Z,97882.81
2023-03-04T20:23:34.468Z,97881.89
2023-03-04T20:26:01.736Z,97882.46
2023-03-04T20:28:28.606Z,97884.95
2023-03-04T20:31:18.428Z,97882.77
2023-03-04T20:33:48.161Z,97877.13
2023-03-04T20:36:18.938Z,97875.92
2023-03-04T20:38:46.213Z,97874.20
2023-03-04T20:41:13.032Z,97871.39
2023-03-04T20:43:39.920Z,97868.55
2023-03-04T20:46:26.043Z,97871.77
2023-03-04T20:48:53.369Z,97870.92
2023-03-04T20:51:20.201Z,97867.87
2023-03-04T20:53:47.122Z,97870.73
2023-03-04T20:56:14.270Z,97872.48
2023-03-04T20:58:41.021Z,97875.46
2023-03-04T21:01:07.816Z,97872.92
2023-03-04T21:03:34.566Z,97877.25
2023-03-04T21:06:05.462Z,97873.73
2023-03-04T21:08:32.353Z,97869.84
2023-03-04T21:10:59.197Z,97868.45
2023-03-04T21:13:32.304Z,97868.75
2023-03-04T21:15:59.249Z,97866.11
2023-03-04T21:18:29.613Z,97861.73
2023-03-04T21:20:56.429Z,97863.17
2023-03-04T21:23:23.299Z,97862.66
2023-03-04T21:25:50.042Z,97863.88
2023-03-04T21:28:18.410Z,97858.68
2023-03-04T21:30:45.542Z,97858.27
2023-03-04T21:33:16.829Z,97857.86
2023-03-04T21:35:44.018Z,97860.58
2023-03-04T21:38:11.015Z,97860.02
2023-03-04T21:40:38.059Z,97859.07
2023-03-04T21:43:06.650Z,97856.92
2023-03-04T21:45:33.583Z,97855.50
2023-03-04T21:48:00.571Z,97858.95
2023-03-04T21:50:27.457Z,97859.20
2023-03-04T21:52:54.268Z,97858.88
2023-03-04T21:55:21.137Z,97861.88
2023-03-04T21:57:47.933Z,97860.77
2023-03-04T22:00:16.139Z,97865.61
2023-03-04T22:02:42.976Z,97860.70
2023-03-04T22:05:09.857Z,97858.16
2023-03-04T22:07:36.731Z,97858.53
2023-03-04T22:10:06.127Z,97859.34
2023-03-04T22:12:33.019Z,97856.59
2023-03-04T22:15:00.069Z,97857.96
2023-03-04T22:17:27.031Z,97859.99
2023-03-04T22:19:54.660Z,97851.30
2023-03-04T22:22:21.468Z,97850.17
2023-03-04T22:24:48.246Z,97850.46
2023-03-04T22:27:15.205Z,97854.89
2023-03-04T22:29:42.139Z,97860.73
2023-03-04T22:32:08.923Z,97854.91
2023-03-04T22:34:35.684Z,97854.04
2023-03-04T22:37:02.508Z,97857.98
2023-03-04T22:39:29.442Z,97858.68
2023-03-04T22:41:56.475Z,97856.65
2023-03-04T22:44:24.133Z,97858.42
2023-03-04T22:46:51.394Z,97858.63
2023-03-04T22:49:18.357Z,97859.33
2023-03-04T22:51:45.389Z,97867.20
2023-03-04T22:54:13.575Z,97868.59
2023-03-04T22:56:40.718Z,97871.65
2023-03-04T22:59:07.680Z,97871.60
2023-03-04T23:01:34.745Z,97872.23
2023-03-04T23:04:01.777Z,97871.63
2023-03-04T23:06:29.951Z,97870.15
2023-03-04T23:08:59.673Z,97870.05
2023-03-04T23:11:28.059Z,97866.52
2023-03-04T23:13:55.514Z,97865.62
2023-03-04T23:16:23.693Z,97864.38
2023-03-04T23:18:51.475Z,97863.97
2023-03-04T23:21:27.764Z,97861.63
2023-03-04T23:23:54.556Z,97866.44
2023-03-04T23:26:21.257Z,97867.82
2023-03-04T23:28:48.309Z,97871.95
2023-03-04T23:31:15.255Z,97870.80
2023-03-04T23:33:42.693Z,97873.86
2023-03-04T23:36:14.173Z,97875.57
2023-03-04T23:38:45.800Z,97875.11
2023-03-04T23:41:13.217Z,97876.84
2023-03-04T23:43:40.022Z,97873.71
2023-03-04T23:46:08.984Z,97877.86
2023-03-04T23:48:35.860Z,97880.29
2023-03-04T23:51:02.785Z,97875.73
2023-03-04T23:53:29.874Z,97880.44
2023-03-04T23:55:56.624Z,97880.48
2023-03-04T23:58:23.512Z,97880.01
